sensor_id;sensor_type;location;lat;lon;timestamp;P1;durP1;ratioP1;P2;durP2;ratioP2
7181;SDS011;3632;42.724;23.298;2023-03-04T00:00:54;12.90;;;10.77;;
7181;SDS011;3632;42.724;23.298;2023-03-04T00:03:21;13.43;;;11.23;;
7181;SDS011;3632;42.724;23.298;2023-03-04T00:05:47;13.87;;;11.57;;
7181;SDS011;3632;42.724;23.298;2023-03-04T00:08:16;13.80;;;11.07;;
7181;SDS011;3632;42.724;23.298;2023-03-04T00:10:43;13.93;;;11.13;;
7181;SDS011;3632;42.724;23.298;2023-03-04T00:13:09;15.07;;;12.23;;
7181;SDS011;3632;42.724;23.298;2023-03-04T00:15:36;13.90;;;11.57;;
7181;SDS011;3632;42.724;23.298;2023-03-04T00:18:03;15.13;;;11.83;;
7181;SDS011;3632;42.724;23.298;2023-03-04T00:20:30;15.37;;;12.37;;
7181;SDS011;3632;42.724;23.298;2023-03-04T00:22:57;14.33;;;11.90;;
7181;SDS011;3632;42.724;23.298;2023-03-04T00:25:25;14.27;;;12.40;;
7181;SDS011;3632;42.724;23.298;2023-03-04T00:27:51;14.93;;;12.70;;
7181;SDS011;3632;42.724;23.298;2023-03-04T00:30:18;14.43;;;11.83;;
7181;SDS011;3632;42.724;23.298;2023-03-04T00:32:45;15.33;;;12.73;;
7181;SDS011;3632;42.724;23.298;2023-03-04T00:35:12;16.57;;;13.67;;
7181;SDS011;3632;42.724;23.298;2023-03-04T00:37:38;16.97;;;13.53;;
7181;SDS011;3632;42.724;23.298;2023-03-04T00:40:06;17.27;;;13.83;;
7181;SDS011;3632;42.724;23.298;2023-03-04T00:42:35;17.33;;;14.30;;
7181;SDS011;3632;42.724;23.298;2023-03-04T00:45:02;17.30;;;13.93;;
7181;SDS011;3632;42.724;23.298;2023-03-04T00:47:29;15.97;;;13.70;;
7181;SDS011;3632;42.724;23.298;2023-03-04T00:49:56;15.87;;;13.37;;
7181;SDS011;3632;42.724;23.298;2023-03-04T00:52:23;16.90;;;13.40;;
7181;SDS011;3632;42.724;23.298;2023-03-04T00:54:49;14.63;;;12.73;;
7181;SDS011;3632;42.724;23.298;2023-03-04T00:57:16;16.73;;;14.10;;
7181;SDS011;3632;42.724;23.298;2023-03-04T00:59:44;16.10;;;13.17;;
7181;SDS011;3632;42.724;23.298;2023-03-04T01:02:11;15.33;;;12.30;;
7181;SDS011;3632;42.724;23.298;2023-03-04T01:04:38;14.97;;;12.40;;
7181;SDS011;3632;42.724;23.298;2023-03-04T01:07:05;16.40;;;12.30;;
7181;SDS011;3632;42.724;23.298;2023-03-04T01:09:32;15.37;;;12.90;;
7181;SDS011;3632;42.724;23.298;2023-03-04T01:11:59;16.60;;;12.70;;
7181;SDS011;3632;42.724;23.298;2023-03-04T01:14:26;16.77;;;13.67;;
7181;SDS011;3632;42.724;23.298;2023-03-04T01:16:54;17.33;;;13.37;;
7181;SDS011;3632;42.724;23.298;2023-03-04T01:19:21;15.77;;;12.80;;
7181;SDS011;3632;42.724;23.298;2023-03-04T01:21:48;16.27;;;13.03;;
7181;SDS011;3632;42.724;23.298;2023-03-04T01:24:14;16.63;;;12.53;;
7181;SDS011;3632;42.724;23.298;2023-03-04T01:26:41;16.30;;;12.97;;
7181;SDS011;3632;42.724;23.298;2023-03-04T01:29:08;16.63;;;13.40;;
7181;SDS011;3632;42.724;23.298;2023-03-04T01:31:35;14.93;;;12.63;;
7181;SDS011;3632;42.724;23.298;2023-03-04T01:34:03;16.87;;;12.83;;
7181;SDS011;3632;42.724;23.298;2023-03-04T01:36:30;15.53;;;12.20;;
7181;SDS011;3632;42.724;23.298;2023-03-04T01:38:56;16.13;;;12.33;;
7181;SDS011;3632;42.724;23.298;2023-03-04T01:41:24;15.87;;;12.90;;
7181;SDS011;3632;42.724;23.298;2023-03-04T01:43:56;16.43;;;12.83;;
7181;SDS011;3632;42.724;23.298;2023-03-04T01:46:26;17.63;;;12.90;;
7181;SDS011;3632;42.724;23.298;2023-03-04T01:48:53;16.33;;;12.30;;
7181;SDS011;3632;42.724;23.298;2023-03-04T01:51:22;14.63;;;12.27;;
7181;SDS011;3632;42.724;23.298;2023-03-04T01:53:49;14.00;;;11.73;;
7181;SDS011;3632;42.724;23.298;2023-03-04T01:56:21;14.90;;;12.17;;
7181;SDS011;3632;42.724;23.298;2023-03-04T01:59:05;13.50;;;11.47;;
7181;SDS011;3632;42.724;23.298;2023-03-04T02:01:38;14.43;;;11.83;;
7181;SDS011;3632;42.724;23.298;2023-03-04T02:04:07;16.13;;;12.03;;
7181;SDS011;3632;42.724;23.298;2023-03-04T02:06:36;14.03;;;11.53;;
7181;SDS011;3632;42.724;23.298;2023-03-04T02:09:05;12.80;;;11.33;;
7181;SDS011;3632;42.724;23.298;2023-03-04T02:11:32;15.17;;;11.87;;
7181;SDS011;3632;42.724;23.298;2023-03-04T02:14:00;14.37;;;11.17;;
7181;SDS011;3632;42.724;23.298;2023-03-04T02:16:27;15.30;;;11.33;;
7181;SDS011;3632;42.724;23.298;2023-03-04T02:18:54;13.03;;;11.50;;
7181;SDS011;3632;42.724;23.298;2023-03-04T02:21:22;12.57;;;11.13;;
7181;SDS011;3632;42.724;23.298;2023-03-04T02:23:54;14.73;;;11.90;;
7181;SDS011;3632;42.724;23.298;2023-03-04T02:26:29;14.97;;;11.83;;
7181;SDS011;3632;42.724;23.298;2023-03-04T02:28:59;13.97;;;11.73;;
7181;SDS011;3632;42.724;23.298;2023-03-04T02:31:28;14.67;;;11.83;;
7181;SDS011;3632;42.724;23.298;2023-03-04T02:33:58;15.27;;;11.90;;
7181;SDS011;3632;42.724;23.298;2023-03-04T02:36:27;13.20;;;11.10;;
7181;SDS011;3632;42.724;23.298;2023-03-04T02:38:54;13.70;;;11.40;;
7181;SDS011;3632;42.724;23.298;2023-03-04T02:41:26;13.50;;;11.47;;
7181;SDS011;3632;42.724;23.298;2023-03-04T02:43:56;11.97;;;10.53;;
7181;SDS011;3632;42.724;23.298;2023-03-04T02:46:23;12.93;;;10.70;;
7181;SDS011;3632;42.724;23.298;2023-03-04T02:48:50;14.13;;;11.40;;
7181;SDS011;3632;42.724;23.298;2023-03-04T02:51:17;12.23;;;10.50;;
7181;SDS011;3632;42.724;23.298;2023-03-04T02:53:44;14.77;;;11.30;;
7181;SDS011;3632;42.724;23.298;2023-03-04T02:56:11;13.87;;;11.50;;
7181;SDS011;3632;42.724;23.298;2023-03-04T02:58:39;13.57;;;10.90;;
7181;SDS011;3632;42.724;23.298;2023-03-04T03:01:06;16.30;;;12.43;;
7181;SDS011;3632;42.724;23.298;2023-03-04T03:03:33;15.33;;;12.93;;
7181;SDS011;3632;42.724;23.298;2023-03-04T03:06:00;13.67;;;11.57;;
7181;SDS011;3632;42.724;23.298;2023-03-04T03:08:26;16.33;;;13.10;;
7181;SDS011;3632;42.724;23.298;2023-03-04T03:10:53;14.93;;;12.57;;
7181;SDS011;3632;42.724;23.298;2023-03-04T03:13:20;15.57;;;12.60;;
7181;SDS011;3632;42.724;23.298;2023-03-04T03:15:48;14.70;;;12.30;;
7181;SDS011;3632;42.724;23.298;2023-03-04T03:18:15;14.00;;;11.80;;
7181;SDS011;3632;42.724;23.298;2023-03-04T03:20:42;14.27;;;11.83;;
7181;SDS011;3632;42.724;23.298;2023-03-04T03:23:09;14.43;;;11.93;;
7181;SDS011;3632;42.724;23.298;2023-03-04T03:25:35;15.27;;;11.80;;
7181;SDS011;3632;42.724;23.298;2023-03-04T03:28:02;33.07;;;25.13;;
7181;SDS011;3632;42.724;23.298;2023-03-04T03:30:29;18.83;;;14.20;;
7181;SDS011;3632;42.724;23.298;2023-03-04T03:32:58;16.87;;;13.57;;
7181;SDS011;3632;42.724;23.298;2023-03-04T03:35:25;16.83;;;13.10;;
7181;SDS011;3632;42.724;23.298;2023-03-04T03:37:52;15.07;;;12.27;;
7181;SDS011;3632;42.724;23.298;2023-03-04T03:40:19;16.80;;;12.77;;
7181;SDS011;3632;42.724;23.298;2023-03-04T03:42:45;15.40;;;12.50;;
7181;SDS011;3632;42.724;23.298;2023-03-04T03:45:13;18.03;;;12.10;;
7181;SDS011;3632;42.724;23.298;2023-03-04T03:47:39;15.97;;;12.67;;
7181;SDS011;3632;42.724;23.298;2023-03-04T03:50:08;15.27;;;12.87;;
7181;SDS011;3632;42.724;23.298;2023-03-04T03:52:36;16.67;;;13.20;;
7181;SDS011;3632;42.724;23.298;2023-03-04T03:55:03;19.20;;;13.80;;
7181;SDS011;3632;42.724;23.298;2023-03-04T03:57:30;16.57;;;12.97;;
7181;SDS011;3632;42.724;23.298;2023-03-04T03:59:57;16.17;;;12.40;;
7181;SDS011;3632;42.724;23.298;2023-03-04T04:02:23;19.10;;;13.23;;
7181;SDS011;3632;42.724;23.298;2023-03-04T04:04:50;19.17;;;14.13;;
7181;SDS011;3632;42.724;23.298;2023-03-04T04:07:18;19.97;;;13.97;;
7181;SDS011;3632;42.724;23.298;2023-03-04T04:09:45;18.17;;;12.87;;
7181;SDS011;3632;42.724;23.298;2023-03-04T04:12:12;16.30;;;12.60;;
7181;SDS011;3632;42.724;23.298;2023-03-04T04:14:40;16.90;;;13.33;;
7181;SDS011;3632;42.724;23.298;2023-03-04T04:17:07;17.03;;;13.20;;
7181;SDS011;3632;42.724;23.298;2023-03-04T04:19:35;16.50;;;12.97;;
7181;SDS011;3632;42.724;23.298;2023-03-04T04:22:02;20.17;;;13.60;;
7181;SDS011;3632;42.724;23.298;2023-03-04T04:24:31;17.20;;;13.73;;
7181;SDS011;3632;42.724;23.298;2023-03-04T04:26:57;21.23;;;14.60;;
7181;SDS011;3632;42.724;23.298;2023-03-04T04:29:25;19.73;;;13.87;;
7181;SDS011;3632;42.724;23.298;2023-03-04T04:31:52;21.10;;;15.57;;
7181;SDS011;3632;42.724;23.298;2023-03-04T04:34:19;20.27;;;15.73;;
7181;SDS011;3632;42.724;23.298;2023-03-04T04:36:46;22.87;;;17.10;;
7181;SDS011;3632;42.724;23.298;2023-03-04T04:39:12;25.20;;;17.17;;
7181;SDS011;3632;42.724;23.298;2023-03-04T04:41:41;23.57;;;18.33;;
7181;SDS011;3632;42.724;23.298;2023-03-04T04:44:09;24.03;;;18.30;;
7181;SDS011;3632;42.724;23.298;2023-03-04T04:46:36;24.00;;;18.03;;
7181;SDS011;3632;42.724;23.298;2023-03-04T04:49:04;23.17;;;18.37;;
7181;SDS011;3632;42.724;23.298;2023-03-04T04:51:31;22.07;;;17.77;;
7181;SDS011;3632;42.724;23.298;2023-03-04T04:53:59;23.13;;;17.80;;
7181;SDS011;3632;42.724;23.298;2023-03-04T04:56:27;23.83;;;19.03;;
7181;SDS011;3632;42.724;23.298;2023-03-04T04:58:57;24.87;;;17.80;;
7181;SDS011;3632;42.724;23.298;2023-03-04T05:01:25;24.13;;;18.40;;
7181;SDS011;3632;42.724;23.298;2023-03-04T05:03:52;24.07;;;18.60;;
7181;SDS011;3632;42.724;23.298;2023-03-04T05:06:20;26.40;;;19.50;;
7181;SDS011;3632;42.724;23.298;2023-03-04T05:08:48;25.43;;;18.40;;
7181;SDS011;3632;42.724;23.298;2023-03-04T05:11:15;30.40;;;25.40;;
7181;SDS011;3632;42.724;23.298;2023-03-04T05:13:43;29.43;;;23.80;;
7181;SDS011;3632;42.724;23.298;2023-03-04T05:16:11;25.33;;;19.13;;
7181;SDS011;3632;42.724;23.298;2023-03-04T05:18:38;26.23;;;20.43;;
7181;SDS011;3632;42.724;23.298;2023-03-04T05:21:05;24.17;;;18.40;;
7181;SDS011;3632;42.724;23.298;2023-03-04T05:23:33;23.70;;;18.37;;
7181;SDS011;3632;42.724;23.298;2023-03-04T05:26:00;22.70;;;18.10;;
7181;SDS011;3632;42.724;23.298;2023-03-04T05:28:27;25.17;;;19.60;;
7181;SDS011;3632;42.724;23.298;2023-03-04T05:30:55;25.17;;;20.00;;
7181;SDS011;3632;42.724;23.298;2023-03-04T05:33:23;23.33;;;18.60;;
7181;SDS011;3632;42.724;23.298;2023-03-04T05:35:50;23.63;;;19.00;;
7181;SDS011;3632;42.724;23.298;2023-03-04T05:38:18;24.90;;;17.60;;
7181;SDS011;3632;42.724;23.298;2023-03-04T05:40:45;21.37;;;16.93;;
7181;SDS011;3632;42.724;23.298;2023-03-04T05:43:13;24.13;;;16.53;;
7181;SDS011;3632;42.724;23.298;2023-03-04T05:45:40;19.20;;;15.03;;
7181;SDS011;3632;42.724;23.298;2023-03-04T05:48:07;19.47;;;14.93;;
7181;SDS011;3632;42.724;23.298;2023-03-04T05:50:36;18.37;;;15.33;;
7181;SDS011;3632;42.724;23.298;2023-03-04T05:53:03;22.27;;;18.33;;
7181;SDS011;3632;42.724;23.298;2023-03-04T05:55:30;25.87;;;19.87;;
7181;SDS011;3632;42.724;23.298;2023-03-04T05:57:57;27.37;;;21.17;;
7181;SDS011;3632;42.724;23.298;2023-03-04T06:00:24;27.03;;;22.37;;
7181;SDS011;3632;42.724;23.298;2023-03-04T06:02:51;26.90;;;21.57;;
7181;SDS011;3632;42.724;23.298;2023-03-04T06:05:18;26.10;;;21.10;;
7181;SDS011;3632;42.724;23.298;2023-03-04T06:07:47;25.43;;;21.33;;
7181;SDS011;3632;42.724;23.298;2023-03-04T06:10:14;31.20;;;25.17;;
7181;SDS011;3632;42.724;23.298;2023-03-04T06:12:42;30.37;;;24.43;;
7181;SDS011;3632;42.724;23.298;2023-03-04T06:15:10;29.50;;;22.93;;
7181;SDS011;3632;42.724;23.298;2023-03-04T06:17:37;24.10;;;20.57;;
7181;SDS011;3632;42.724;23.298;2023-03-04T06:20:05;29.10;;;23.37;;
7181;SDS011;3632;42.724;23.298;2023-03-04T06:22:33;24.10;;;21.03;;
7181;SDS011;3632;42.724;23.298;2023-03-04T06:25:01;25.20;;;20.73;;
7181;SDS011;3632;42.724;23.298;2023-03-04T06:27:28;27.17;;;20.67;;
7181;SDS011;3632;42.724;23.298;2023-03-04T06:29:55;22.70;;;18.37;;
7181;SDS011;3632;42.724;23.298;2023-03-04T06:32:22;25.60;;;18.20;;
7181;SDS011;3632;42.724;23.298;2023-03-04T06:34:49;20.37;;;16.57;;
7181;SDS011;3632;42.724;23.298;2023-03-04T06:37:16;17.47;;;15.13;;
7181;SDS011;3632;42.724;23.298;2023-03-04T06:39:42;21.57;;;17.77;;
7181;SDS011;3632;42.724;23.298;2023-03-04T06:42:11;26.90;;;20.57;;
7181;SDS011;3632;42.724;23.298;2023-03-04T06:44:38;24.83;;;20.43;;
7181;SDS011;3632;42.724;23.298;2023-03-04T06:47:05;24.73;;;20.70;;
7181;SDS011;3632;42.724;23.298;2023-03-04T06:49:32;25.37;;;19.30;;
7181;SDS011;3632;42.724;23.298;2023-03-04T06:51:58;22.87;;;18.03;;
7181;SDS011;3632;42.724;23.298;2023-03-04T06:54:25;28.60;;;20.57;;
7181;SDS011;3632;42.724;23.298;2023-03-04T06:56:52;27.43;;;20.13;;
7181;SDS011;3632;42.724;23.298;2023-03-04T06:59:20;26.07;;;19.73;;
7181;SDS011;3632;42.724;23.298;2023-03-04T07:01:47;27.27;;;20.00;;
7181;SDS011;3632;42.724;23.298;2023-03-04T07:04:14;26.10;;;18.83;;
7181;SDS011;3632;42.724;23.298;2023-03-04T07:06:41;21.03;;;15.07;;
7181;SDS011;3632;42.724;23.298;2023-03-04T07:09:07;18.67;;;13.90;;
7181;SDS011;3632;42.724;23.298;2023-03-04T07:11:34;15.83;;;11.50;;
7181;SDS011;3632;42.724;23.298;2023-03-04T07:14:01;15.83;;;11.77;;
7181;SDS011;3632;42.724;23.298;2023-03-04T07:16:29;14.83;;;10.67;;
7181;SDS011;3632;42.724;23.298;2023-03-04T07:18:56;13.27;;;10.03;;
7181;SDS011;3632;42.724;23.298;2023-03-04T07:21:24;13.50;;;10.10;;
7181;SDS011;3632;42.724;23.298;2023-03-04T07:23:50;13.70;;;9.90;;
7181;SDS011;3632;42.724;23.298;2023-03-04T07:26:17;13.00;;;10.27;;
7181;SDS011;3632;42.724;23.298;2023-03-04T07:28:44;13.30;;;10.27;;
7181;SDS011;3632;42.724;23.298;2023-03-04T07:31:12;14.93;;;10.17;;
7181;SDS011;3632;42.724;23.298;2023-03-04T07:33:48;13.77;;;10.17;;
7181;SDS011;3632;42.724;23.298;2023-03-04T07:36:16;17.10;;;12.13;;
7181;SDS011;3632;42.724;23.298;2023-03-04T07:38:44;15.93;;;11.27;;
7181;SDS011;3632;42.724;23.298;2023-03-04T07:41:11;14.33;;;10.77;;
7181;SDS011;3632;42.724;23.298;2023-03-04T07:43:38;13.70;;;10.80;;
7181;SDS011;3632;42.724;23.298;2023-03-04T07:46:05;15.70;;;11.70;;
7181;SDS011;3632;42.724;23.298;2023-03-04T07:48:32;13.80;;;10.63;;
7181;SDS011;3632;42.724;23.298;2023-03-04T07:51:04;15.70;;;11.07;;
7181;SDS011;3632;42.724;23.298;2023-03-04T07:53:33;14.63;;;10.80;;
7181;SDS011;3632;42.724;23.298;2023-03-04T07:56:01;15.17;;;10.53;;
7181;SDS011;3632;42.724;23.298;2023-03-04T07:58:28;13.27;;;10.40;;
7181;SDS011;3632;42.724;23.298;2023-03-04T08:00:55;15.87;;;10.23;;
7181;SDS011;3632;42.724;23.298;2023-03-04T08:03:22;14.07;;;10.50;;
7181;SDS011;3632;42.724;23.298;2023-03-04T08:05:49;19.43;;;12.07;;
7181;SDS011;3632;42.724;23.298;2023-03-04T08:08:17;18.23;;;11.43;;
7181;SDS011;3632;42.724;23.298;2023-03-04T08:10:44;13.93;;;10.37;;
7181;SDS011;3632;42.724;23.298;2023-03-04T08:13:10;12.50;;;10.07;;
7181;SDS011;3632;42.724;23.298;2023-03-04T08:15:40;12.70;;;9.30;;
7181;SDS011;3632;42.724;23.298;2023-03-04T08:18:07;10.57;;;8.20;;
7181;SDS011;3632;42.724;23.298;2023-03-04T08:20:34;11.83;;;9.20;;
7181;SDS011;3632;42.724;23.298;2023-03-04T08:23:01;13.80;;;9.60;;
7181;SDS011;3632;42.724;23.298;2023-03-04T08:25:29;16.10;;;10.90;;
7181;SDS011;3632;42.724;23.298;2023-03-04T08:27:56;16.00;;;10.70;;
7181;SDS011;3632;42.724;23.298;2023-03-04T08:30:24;14.50;;;10.43;;
7181;SDS011;3632;42.724;23.298;2023-03-04T08:32:51;17.90;;;11.63;;
7181;SDS011;3632;42.724;23.298;2023-03-04T08:35:18;17.70;;;10.90;;
7181;SDS011;3632;42.724;23.298;2023-03-04T08:37:44;15.33;;;10.27;;
7181;SDS011;3632;42.724;23.298;2023-03-04T08:40:12;14.73;;;10.80;;
7181;SDS011;3632;42.724;23.298;2023-03-04T08:42:40;15.43;;;10.30;;
7181;SDS011;3632;42.724;23.298;2023-03-04T08:45:07;13.37;;;10.10;;
7181;SDS011;3632;42.724;23.298;2023-03-04T08:47:36;14.97;;;10.10;;
7181;SDS011;3632;42.724;23.298;2023-03-04T08:50:04;14.57;;;9.80;;
7181;SDS011;3632;42.724;23.298;2023-03-04T08:52:31;12.63;;;9.70;;
7181;SDS011;3632;42.724;23.298;2023-03-04T08:54:59;16.57;;;11.10;;
7181;SDS011;3632;42.724;23.298;2023-03-04T08:57:26;13.83;;;10.47;;
7181;SDS011;3632;42.724;23.298;2023-03-04T08:59:54;13.93;;;11.57;;
7181;SDS011;3632;42.724;23.298;2023-03-04T09:02:21;15.67;;;10.47;;
7181;SDS011;3632;42.724;23.298;2023-03-04T09:04:48;18.97;;;11.30;;
7181;SDS011;3632;42.724;23.298;2023-03-04T09:07:15;16.40;;;11.30;;
7181;SDS011;3632;42.724;23.298;2023-03-04T09:09:42;17.53;;;11.23;;
7181;SDS011;3632;42.724;23.298;2023-03-04T09:12:09;16.53;;;11.63;;
7181;SDS011;3632;42.724;23.298;2023-03-04T09:14:35;17.93;;;11.07;;
7181;SDS011;3632;42.724;23.298;2023-03-04T09:17:04;15.20;;;10.47;;
7181;SDS011;3632;42.724;23.298;2023-03-04T09:19:31;16.77;;;10.80;;
7181;SDS011;3632;42.724;23.298;2023-03-04T09:21:58;14.30;;;10.13;;
7181;SDS011;3632;42.724;23.298;2023-03-04T09:24:25;15.43;;;10.53;;
7181;SDS011;3632;42.724;23.298;2023-03-04T09:26:52;13.27;;;10.93;;
7181;SDS011;3632;42.724;23.298;2023-03-04T09:29:20;14.27;;;11.00;;
7181;SDS011;3632;42.724;23.298;2023-03-04T09:31:47;18.83;;;11.73;;
7181;SDS011;3632;42.724;23.298;2023-03-04T09:34:15;16.70;;;11.63;;
7181;SDS011;3632;42.724;23.298;2023-03-04T09:36:42;17.03;;;11.37;;
7181;SDS011;3632;42.724;23.298;2023-03-04T09:39:08;17.73;;;11.70;;
7181;SDS011;3632;42.724;23.298;2023-03-04T09:41:36;16.17;;;11.77;;
7181;SDS011;3632;42.724;23.298;2023-03-04T09:44:06;14.00;;;10.40;;
7181;SDS011;3632;42.724;23.298;2023-03-04T09:46:40;16.83;;;11.47;;
7181;SDS011;3632;42.724;23.298;2023-03-04T09:49:10;17.13;;;11.73;;
7181;SDS011;3632;42.724;23.298;2023-03-04T09:51:50;18.40;;;11.50;;
7181;SDS011;3632;42.724;23.298;2023-03-04T09:54:35;15.83;;;11.53;;
7181;SDS011;3632;42.724;23.298;2023-03-04T09:57:19;17.93;;;11.70;;
7181;SDS011;3632;42.724;23.298;2023-03-04T09:59:55;17.37;;;11.57;;
7181;SDS011;3632;42.724;23.298;2023-03-04T10:02:31;17.13;;;11.27;;
7181;SDS011;3632;42.724;23.298;2023-03-04T10:05:07;13.13;;;10.17;;
7181;SDS011;3632;42.724;23.298;2023-03-04T10:07:42;15.27;;;10.53;;
7181;SDS011;3632;42.724;23.298;2023-03-04T10:10:14;12.77;;;10.33;;
7181;SDS011;3632;42.724;23.298;2023-03-04T10:12:44;14.57;;;10.27;;
7181;SDS011;3632;42.724;23.298;2023-03-04T10:15:25;13.03;;;10.20;;
7181;SDS011;3632;42.724;23.298;2023-03-04T10:18:00;13.93;;;10.80;;
7181;SDS011;3632;42.724;23.298;2023-03-04T10:20:37;14.03;;;10.83;;
7181;SDS011;3632;42.724;23.298;2023-03-04T10:23:17;17.93;;;11.00;;
7181;SDS011;3632;42.724;23.298;2023-03-04T10:25:44;16.53;;;11.10;;
7181;SDS011;3632;42.724;23.298;2023-03-04T10:28:17;14.63;;;10.73;;
7181;SDS011;3632;42.724;23.298;2023-03-04T10:30:47;13.50;;;10.90;;
7181;SDS011;3632;42.724;23.298;2023-03-04T10:33:23;12.63;;;10.10;;
7181;SDS011;3632;42.724;23.298;2023-03-04T10:35:52;14.43;;;10.77;;
7181;SDS011;3632;42.724;23.298;2023-03-04T10:38:27;16.77;;;11.07;;
7181;SDS011;3632;42.724;23.298;2023-03-04T10:40:56;18.50;;;11.90;;
7181;SDS011;3632;42.724;23.298;2023-03-04T10:43:23;15.17;;;10.93;;
7181;SDS011;3632;42.724;23.298;2023-03-04T10:45:53;17.13;;;12.00;;
7181;SDS011;3632;42.724;23.298;2023-03-04T10:48:23;15.53;;;11.00;;
7181;SDS011;3632;42.724;23.298;2023-03-04T10:50:51;15.30;;;11.27;;
7181;SDS011;3632;42.724;23.298;2023-03-04T10:53:23;14.93;;;11.03;;
7181;SDS011;3632;42.724;23.298;2023-03-04T10:55:55;14.13;;;11.33;;
7181;SDS011;3632;42.724;23.298;2023-03-04T10:58:22;15.50;;;11.03;;
7181;SDS011;3632;42.724;23.298;2023-03-04T11:00:51;16.93;;;10.93;;
7181;SDS011;3632;42.724;23.298;2023-03-04T11:03:28;15.43;;;11.13;;
7181;SDS011;3632;42.724;23.298;2023-03-04T11:06:08;16.33;;;11.10;;
7181;SDS011;3632;42.724;23.298;2023-03-04T11:08:39;16.00;;;11.63;;
7181;SDS011;3632;42.724;23.298;2023-03-04T11:11:22;14.20;;;11.23;;
7181;SDS011;3632;42.724;23.298;2023-03-04T11:13:51;14.17;;;11.00;;
7181;SDS011;3632;42.724;23.298;2023-03-04T11:16:23;18.70;;;11.40;;
7181;SDS011;3632;42.724;23.298;2023-03-04T11:18:52;17.27;;;11.67;;
7181;SDS011;3632;42.724;23.298;2023-03-04T11:21:24;14.43;;;10.53;;
7181;SDS011;3632;42.724;23.298;2023-03-04T11:23:55;21.53;;;16.70;;
7181;SDS011;3632;42.724;23.298;2023-03-04T11:26:27;16.60;;;12.30;;
7181;SDS011;3632;42.724;23.298;2023-03-04T11:28:57;18.70;;;13.13;;
7181;SDS011;3632;42.724;23.298;2023-03-04T11:31:29;17.00;;;12.30;;
7181;SDS011;3632;42.724;23.298;2023-03-04T11:34:00;20.87;;;14.97;;
7181;SDS011;3632;42.724;23.298;2023-03-04T11:36:32;22.40;;;15.03;;
7181;SDS011;3632;42.724;23.298;2023-03-04T11:39:12;19.07;;;12.53;;
7181;SDS011;3632;42.724;23.298;2023-03-04T11:41:49;14.47;;;11.43;;
7181;SDS011;3632;42.724;23.298;2023-03-04T11:44:21;18.43;;;12.43;;
7181;SDS011;3632;42.724;23.298;2023-03-04T11:46:51;18.93;;;12.63;;
7181;SDS011;3632;42.724;23.298;2023-03-04T11:49:33;17.97;;;12.33;;
7181;SDS011;3632;42.724;23.298;2023-03-04T11:52:26;17.57;;;13.00;;
7181;SDS011;3632;42.724;23.298;2023-03-04T11:55:11;17.80;;;12.57;;
7181;SDS011;3632;42.724;23.298;2023-03-04T11:57:55;16.20;;;12.93;;
7181;SDS011;3632;42.724;23.298;2023-03-04T12:00:36;14.80;;;11.93;;
7181;SDS011;3632;42.724;23.298;2023-03-04T12:03:13;18.77;;;11.70;;
7181;SDS011;3632;42.724;23.298;2023-03-04T12:05:51;19.87;;;12.27;;
7181;SDS011;3632;42.724;23.298;2023-03-04T12:08:28;17.13;;;12.30;;
7181;SDS011;3632;42.724;23.298;2023-03-04T12:11:05;17.47;;;12.60;;
7181;SDS011;3632;42.724;23.298;2023-03-04T12:16:46;18.00;;;12.63;;
7181;SDS011;3632;42.724;23.298;2023-03-04T12:19:33;19.33;;;12.50;;
7181;SDS011;3632;42.724;23.298;2023-03-04T12:22:17;17.63;;;12.60;;
7181;SDS011;3632;42.724;23.298;2023-03-04T12:25:05;18.93;;;13.50;;
7181;SDS011;3632;42.724;23.298;2023-03-04T12:27:45;21.30;;;14.93;;
7181;SDS011;3632;42.724;23.298;2023-03-04T12:30:32;24.63;;;18.17;;
7181;SDS011;3632;42.724;23.298;2023-03-04T12:33:09;31.33;;;21.43;;
7181;SDS011;3632;42.724;23.298;2023-03-04T12:35:45;24.50;;;17.37;;
7181;SDS011;3632;42.724;23.298;2023-03-04T12:38:27;22.23;;;15.90;;
7181;SDS011;3632;42.724;23.298;2023-03-04T12:41:01;17.40;;;13.07;;
7181;SDS011;3632;42.724;23.298;2023-03-04T12:43:48;23.23;;;16.57;;
7181;SDS011;3632;42.724;23.298;2023-03-04T12:46:26;19.77;;;12.87;;
7181;SDS011;3632;42.724;23.298;2023-03-04T12:49:07;19.87;;;13.50;;
7181;SDS011;3632;42.724;23.298;2023-03-04T12:51:58;16.73;;;12.43;;
7181;SDS011;3632;42.724;23.298;2023-03-04T12:54:33;17.27;;;12.57;;
7181;SDS011;3632;42.724;23.298;2023-03-04T12:57:06;17.40;;;12.43;;
7181;SDS011;3632;42.724;23.298;2023-03-04T12:59:39;21.30;;;15.07;;
7181;SDS011;3632;42.724;23.298;2023-03-04T13:05:22;19.50;;;16.07;;
7181;SDS011;3632;42.724;23.298;2023-03-04T13:07:58;22.37;;;16.47;;
7181;SDS011;3632;42.724;23.298;2023-03-04T13:10:33;26.70;;;15.50;;
7181;SDS011;3632;42.724;23.298;2023-03-04T13:13:00;20.97;;;14.53;;
7181;SDS011;3632;42.724;23.298;2023-03-04T13:15:30;16.80;;;13.53;;
7181;SDS011;3632;42.724;23.298;2023-03-04T13:18:02;19.90;;;13.93;;
7181;SDS011;3632;42.724;23.298;2023-03-04T13:21:03;19.23;;;14.37;;
7181;SDS011;3632;42.724;23.298;2023-03-04T13:23:31;19.80;;;14.57;;
7181;SDS011;3632;42.724;23.298;2023-03-04T13:26:15;19.87;;;15.17;;
7181;SDS011;3632;42.724;23.298;2023-03-04T13:28:45;29.67;;;21.77;;
7181;SDS011;3632;42.724;23.298;2023-03-04T13:31:18;24.73;;;17.57;;
7181;SDS011;3632;42.724;23.298;2023-03-04T13:33:54;20.30;;;13.80;;
7181;SDS011;3632;42.724;23.298;2023-03-04T13:39:24;21.53;;;13.83;;
7181;SDS011;3632;42.724;23.298;2023-03-04T13:41:53;18.70;;;13.93;;
7181;SDS011;3632;42.724;23.298;2023-03-04T13:47:26;18.37;;;14.03;;
7181;SDS011;3632;42.724;23.298;2023-03-04T13:50:20;20.80;;;13.57;;
7181;SDS011;3632;42.724;23.298;2023-03-04T13:52:49;21.40;;;15.77;;
7181;SDS011;3632;42.724;23.298;2023-03-04T13:55:36;17.57;;;14.47;;
7181;SDS011;3632;42.724;23.298;2023-03-04T13:58:16;19.07;;;14.30;;
7181;SDS011;3632;42.724;23.298;2023-03-04T14:00:47;20.87;;;14.73;;
7181;SDS011;3632;42.724;23.298;2023-03-04T14:03:20;28.63;;;15.00;;
7181;SDS011;3632;42.724;23.298;2023-03-04T14:08:44;22.63;;;15.07;;
7181;SDS011;3632;42.724;23.298;2023-03-04T14:11:13;23.73;;;15.10;;
7181;SDS011;3632;42.724;23.298;2023-03-04T14:13:40;24.20;;;16.03;;
7181;SDS011;3632;42.724;23.298;2023-03-04T14:16:08;21.00;;;16.57;;
7181;SDS011;3632;42.724;23.298;2023-03-04T14:18:35;22.87;;;16.37;;
7181;SDS011;3632;42.724;23.298;2023-03-04T14:21:02;23.17;;;17.20;;
7181;SDS011;3632;42.724;23.298;2023-03-04T14:23:32;25.13;;;16.63;;
7181;SDS011;3632;42.724;23.298;2023-03-04T14:26:08;24.63;;;17.47;;
7181;SDS011;3632;42.724;23.298;2023-03-04T14:28:41;22.33;;;17.27;;
7181;SDS011;3632;42.724;23.298;2023-03-04T14:31:14;24.03;;;17.60;;
7181;SDS011;3632;42.724;23.298;2023-03-04T14:33:43;24.97;;;17.07;;
7181;SDS011;3632;42.724;23.298;2023-03-04T14:36:14;24.47;;;17.30;;
7181;SDS011;3632;42.724;23.298;2023-03-04T14:38:46;24.23;;;16.63;;
7181;SDS011;3632;42.724;23.298;2023-03-04T14:41:19;21.47;;;16.30;;
7181;SDS011;3632;42.724;23.298;2023-03-04T14:43:50;22.43;;;16.83;;
7181;SDS011;3632;42.724;23.298;2023-03-04T14:46:22;25.57;;;17.87;;
7181;SDS011;3632;42.724;23.298;2023-03-04T14:48:55;30.00;;;17.53;;
7181;SDS011;3632;42.724;23.298;2023-03-04T14:51:27;26.87;;;17.87;;
7181;SDS011;3632;42.724;23.298;2023-03-04T14:53:58;23.13;;;16.60;;
7181;SDS011;3632;42.724;23.298;2023-03-04T14:56:27;24.80;;;16.30;;
7181;SDS011;3632;42.724;23.298;2023-03-04T14:58:56;22.40;;;16.00;;
7181;SDS011;3632;42.724;23.298;2023-03-04T15:01:28;23.23;;;16.37;;
7181;SDS011;3632;42.724;23.298;2023-03-04T15:03:59;22.50;;;16.50;;
7181;SDS011;3632;42.724;23.298;2023-03-04T15:06:27;24.23;;;16.87;;